Time;durP1;ratioP1;P1;durP2;ratioP2;P2;SDS_P1;SDS_P2;PMS_P1;PMS_P2;Temp;Humidity;BMP_temperature;BMP_pressure;BME280_temperature;BME280_humidity;BME280_pressure;Samples;Min_cycle;Max_cycle;Signal;HPM_P1;HPM_P2
2023/07/13 00:01:39;;;;;;;6.30;1.45;;;;;;;-142.75;100.00;76093.94;5005557;28;20040;-64
2023/07/13 00:04:05;;;;;;;10.40;2.35;;;;;;;-142.75;100.00;76090.00;5005652;28;20113;-63
2023/07/13 00:06:32;;;;;;;10.57;1.95;;;;;;;-142.75;100.00;76082.13;5005476;28;20038;-64
2023/07/13 00:08:59;;;;;;;11.25;1.90;;;;;;;-142.75;100.00;76076.22;5005300;28;20072;-64
2023/07/13 00:11:24;;;;;;;10.13;1.83;;;;;;;-142.75;100.00;76070.34;5005504;28;20033;-65
2023/07/13 00:13:49;;;;;;;10.77;2.45;;;;;;;-142.75;100.00;76068.38;5005747;28;20026;-64
2023/07/13 00:16:15;;;;;;;8.15;1.98;;;;;;;-142.75;100.00;76060.50;5005444;28;20606;-64
2023/07/13 00:18:40;;;;;;;11.00;1.75;;;;;;;-142.75;100.00;76060.50;5003718;28;20023;-64
2023/07/13 00:21:06;;;;;;;10.23;1.85;;;;;;;-142.75;100.00;76056.56;5005343;28;20041;-65
2023/07/13 00:23:37;;;;;;;10.57;1.95;;;;;;;-142.75;100.00;76052.63;5005306;28;20030;-65
2023/07/13 00:26:04;;;;;;;14.88;2.30;;;;;;;-142.75;100.00;76048.69;5005083;28;20385;-65
2023/07/13 00:28:30;;;;;;;8.43;1.85;;;;;;;-142.75;100.00;76068.38;4985469;28;20062;-65
2023/07/13 00:30:55;;;;;;;10.93;2.83;;;;;;;-142.75;100.00;76093.94;4985950;28;20034;-61
2023/07/13 00:33:22;;;;;;;10.02;2.13;;;;;;;-142.75;100.00;76091.97;4985768;28;20389;-64
2023/07/13 00:35:48;;;;;;;13.13;2.05;;;;;;;-142.75;100.00;76090.00;4985670;28;20391;-64
2023/07/13 00:38:14;;;;;;;7.30;1.85;;;;;;;-142.75;100.00;76070.34;4985454;28;20053;-64
2023/07/13 00:40:39;;;;;;;12.93;2.13;;;;;;;-142.75;100.00;76062.47;4985246;28;20026;-63
2023/07/13 00:43:13;;;;;;;9.23;1.65;;;;;;;-142.75;100.00;76054.59;4985298;28;20291;-63
2023/07/13 00:45:44;;;;;;;16.33;2.78;;;;;;;-142.75;100.00;76048.69;4986860;28;20541;-64
2023/07/13 00:48:12;;;;;;;10.80;1.75;;;;;;;-142.75;100.00;76042.78;5004900;28;20513;-64
2023/07/13 00:50:39;;;;;;;12.23;2.28;;;;;;;-142.75;100.00;76040.81;5004490;28;20128;-64
2023/07/13 00:53:04;;;;;;;10.18;1.95;;;;;;;-142.75;100.00;76048.69;5005202;28;20108;-64
2023/07/13 00:55:30;;;;;;;14.45;2.25;;;;;;;-142.75;100.00;76054.59;5004606;28;20442;-64
2023/07/13 00:57:55;;;;;;;11.77;1.65;;;;;;;-142.75;100.00;76058.53;5004812;28;20030;-62
2023/07/13 01:00:22;;;;;;;13.85;2.45;;;;;;;-142.75;100.00;76058.53;5004558;28;20030;-65
2023/07/13 01:02:49;;;;;;;15.40;2.30;;;;;;;-142.75;100.00;76064.44;5004523;28;20037;-64
2023/07/13 01:05:20;;;;;;;11.52;1.70;;;;;;;-142.75;100.00;76068.38;5004375;28;20033;-64
2023/07/13 01:07:48;;;;;;;12.60;1.77;;;;;;;-142.75;100.00;76074.25;5004708;28;20501;-63
2023/07/13 01:10:14;;;;;;;11.40;2.10;;;;;;;-142.75;100.00;76068.38;5001545;28;20030;-63
2023/07/13 01:12:40;;;;;;;11.07;1.98;;;;;;;-142.75;100.00;76078.19;5004366;28;20076;-64
2023/07/13 01:15:26;;;;;;;9.02;2.00;;;;;;;-142.75;100.00;76097.88;5004522;28;20117;-63
2023/07/13 01:17:51;;;;;;;11.55;2.25;;;;;;;-142.75;100.00;76099.84;5004450;28;20520;-63
2023/07/13 01:20:17;;;;;;;8.25;1.92;;;;;;;-142.75;100.00;76125.44;5004018;28;20030;-63
2023/07/13 01:22:42;;;;;;;4.70;1.40;;;;;;;-142.75;100.00;76121.50;5004559;28;20030;-63
2023/07/13 01:25:08;;;;;;;8.13;1.70;;;;;;;-142.75;100.00;76133.31;5004883;28;20029;-64
2023/07/13 01:27:34;;;;;;;11.23;1.70;;;;;;;-142.75;100.00;76151.03;5004347;28;20022;-63
2023/07/13 01:30:03;;;;;;;11.93;2.05;;;;;;;-142.75;100.00;76145.13;5003918;28;20029;-63
2023/07/13 01:32:31;;;;;;;9.65;1.75;;;;;;;-142.75;100.00;76139.22;5003967;28;20402;-64
2023/07/13 01:34:56;;;;;;;7.57;1.38;;;;;;;-142.75;100.00;76141.19;5004466;28;20049;-64
2023/07/13 01:37:23;;;;;;;17.50;2.08;;;;;;;-142.75;100.00;76135.28;5004183;28;20445;-64
2023/07/13 01:39:48;;;;;;;10.85;1.90;;;;;;;-142.75;100.00;76154.97;5003834;28;20053;-64
2023/07/13 01:42:14;;;;;;;14.38;2.10;;;;;;;-142.75;100.00;76135.28;5003937;28;20092;-64
2023/07/13 01:44:40;;;;;;;9.75;1.60;;;;;;;-142.75;100.00;76151.03;5004022;28;20061;-63
2023/07/13 01:47:05;;;;;;;9.35;1.60;;;;;;;-142.75;100.00;76154.97;5003512;28;20056;-65
2023/07/13 01:49:31;;;;;;;10.93;1.30;;;;;;;-142.75;100.00;76145.13;5003547;28;20183;-63
2023/07/13 01:51:56;;;;;;;10.27;1.83;;;;;;;-142.75;100.00;76151.03;5004266;28;20084;-63
2023/07/13 01:54:21;;;;;;;12.85;1.67;;;;;;;-142.75;100.00;76168.75;5004608;28;20516;-64
2023/07/13 01:56:47;;;;;;;3.67;1.15;;;;;;;-142.75;100.00;76168.75;5004663;28;20041;-63
2023/07/13 01:59:12;;;;;;;2.83;0.85;;;;;;;-142.75;100.00;76184.50;5003718;28;20029;-63
2023/07/13 02:01:38;;;;;;;5.80;1.73;;;;;;;-142.75;100.00;76204.16;5003621;28;20026;-65
2023/07/13 02:04:03;;;;;;;7.43;1.08;;;;;;;-142.75;100.00;76212.03;5003916;28;20065;-64
2023/07/13 02:06:29;;;;;;;3.97;0.77;;;;;;;-142.75;100.00;76214.00;5003925;28;20033;-63
2023/07/13 02:08:55;;;;;;;2.50;0.60;;;;;;;-142.75;100.00;76221.88;5007348;28;20037;-64
2023/07/13 02:11:20;;;;;;;4.70;0.77;;;;;;;-142.75;100.00;76233.69;5008279;28;20109;-64
2023/07/13 02:13:46;;;;;;;5.40;1.05;;;;;;;-142.75;100.00;76247.47;5007682;28;20515;-64
2023/07/13 02:16:11;;;;;;;3.10;0.70;;;;;;;-142.75;100.00;76243.53;5007554;28;20083;-64
2023/07/13 02:18:37;;;;;;;5.47;1.30;;;;;;;-142.75;100.00;76237.63;5007353;28;20026;-64
2023/07/13 02:21:03;;;;;;;3.80;0.60;;;;;;;-142.75;100.00;76241.56;5007599;28;20037;-63
2023/07/13 02:23:28;;;;;;;4.35;0.90;;;;;;;-142.75;100.00;76239.59;5007773;28;20022;-63
2023/07/13 02:25:55;;;;;;;4.93;1.40;;;;;;;-142.75;100.00;76217.94;5008169;28;20097;-67
2023/07/13 02:28:21;;;;;;;12.38;1.52;;;;;;;-142.75;100.00;76223.84;5007414;28;20096;-64
2023/07/13 02:30:46;;;;;;;4.95;1.00;;;;;;;-142.75;100.00;76215.97;5006885;28;20076;-63
2023/07/13 02:33:12;;;;;;;6.75;1.00;;;;;;;-142.75;100.00;76210.06;5007389;28;20436;-63
2023/07/13 02:35:37;;;;;;;6.53;1.20;;;;;;;-142.75;100.00;76245.50;5007243;28;20025;-63
2023/07/13 02:38:03;;;;;;;8.48;1.65;;;;;;;-142.75;100.00;76231.72;5007213;28;20101;-63
2023/07/13 02:40:28;;;;;;;7.13;1.33;;;;;;;-142.75;100.00;76243.53;5007040;28;20025;-64
2023/07/13 02:42:53;;;;;;;10.02;1.77;;;;;;;-142.75;100.00;76227.78;5007149;28;20029;-64
2023/07/13 02:45:19;;;;;;;7.53;1.65;;;;;;;-142.75;100.00;76231.72;5007318;28;20028;-64
2023/07/13 02:47:44;;;;;;;6.72;1.65;;;;;;;-142.75;100.00;76219.91;5007031;28;20033;-64
2023/07/13 02:50:10;;;;;;;7.40;1.92;;;;;;;-142.75;100.00;76200.25;5006646;28;20030;-64
2023/07/13 02:52:35;;;;;;;10.57;1.83;;;;;;;-142.75;100.00;76206.13;5007284;28;20426;-64
2023/07/13 02:55:00;;;;;;;11.90;1.75;;;;;;;-142.75;100.00;76215.97;5007345;28;20029;-64
2023/07/13 02:57:27;;;;;;;9.25;1.42;;;;;;;-142.75;100.00;76200.25;5007210;28;20028;-64
2023/07/13 02:59:53;;;;;;;7.47;1.60;;;;;;;-142.75;100.00;76192.38;5006354;28;20108;-63
2023/07/13 03:02:18;;;;;;;6.30;1.50;;;;;;;-142.75;100.00;76196.31;5006838;28;20029;-63
2023/07/13 03:04:44;;;;;;;9.30;2.05;;;;;;;-142.75;100.00;76200.25;5006898;28;20021;-63
2023/07/13 03:07:10;;;;;;;12.60;2.55;;;;;;;-142.75;100.00;76225.81;5006655;28;20037;-63
2023/07/13 03:09:36;;;;;;;10.05;2.00;;;;;;;-142.75;100.00;76208.09;5006323;28;20033;-63
2023/07/13 03:12:02;;;;;;;10.48;1.65;;;;;;;-142.75;100.00;76204.16;5006761;28;20025;-64
2023/07/13 03:14:27;;;;;;;14.88;2.25;;;;;;;-142.75;100.00;76190.41;4999303;28;20498;-62
2023/07/13 03:16:53;;;;;;;10.75;2.05;;;;;;;-142.75;100.00;76190.41;4987319;28;20026;-64
2023/07/13 03:19:19;;;;;;;11.30;1.83;;;;;;;-142.75;100.00;76184.50;4986196;28;20026;-63
2023/07/13 03:21:45;;;;;;;10.55;2.10;;;;;;;-142.75;100.00;76182.53;4987300;28;20513;-64
2023/07/13 03:24:10;;;;;;;16.63;2.28;;;;;;;-142.75;100.00;76184.50;4987343;28;20158;-63
2023/07/13 03:26:36;;;;;;;5.32;1.60;;;;;;;-142.75;100.00;76180.56;4987424;28;20049;-65
2023/07/13 03:29:02;;;;;;;11.40;2.03;;;;;;;-142.75;100.00;76178.59;4986536;28;20026;-65
2023/07/13 03:31:35;;;;;;;14.02;2.72;;;;;;;-142.75;100.00;76188.44;4993998;28;20401;-63
2023/07/13 03:34:00;;;;;;;10.65;2.13;;;;;;;-142.75;100.00;76186.47;5006354;28;20113;-63
2023/07/13 03:36:28;;;;;;;12.15;2.40;;;;;;;-142.75;100.00;76198.28;4989447;28;20037;-63
2023/07/13 03:38:58;;;;;;;13.13;2.47;;;;;;;-142.75;100.00;76170.72;4991170;28;20577;-64
2023/07/13 03:41:25;;;;;;;10.18;2.10;;;;;;;-142.75;100.00;76184.50;4999422;28;20163;-63
2023/07/13 03:43:50;;;;;;;10.88;2.15;;;;;;;-142.75;100.00;76184.50;5006055;28;20771;-63
2023/07/13 03:46:16;;;;;;;13.88;2.65;;;;;;;-142.75;100.00;76160.88;5006215;28;20470;-65
2023/07/13 03:48:44;;;;;;;15.43;2.72;;;;;;;-142.75;100.00;76160.88;4987211;28;20034;-64
2023/07/13 03:51:10;;;;;;;13.52;2.50;;;;;;;-142.75;100.00;76160.88;4986629;28;20453;-64
2023/07/13 03:53:41;;;;;;;16.85;2.80;;;;;;;-142.75;100.00;76149.06;5006054;28;20030;-64
2023/07/13 03:56:06;;;;;;;9.95;2.45;;;;;;;-142.75;100.00;76172.69;5002849;28;20044;-64
2023/07/13 03:58:34;;;;;;;10.55;3.08;;;;;;;-142.75;100.00;76168.75;4986665;28;20030;-64
2023/07/13 04:01:01;;;;;;;11.90;2.55;;;;;;;-142.75;100.00;76184.50;4986472;28;20030;-64
2023/07/13 04:03:27;;;;;;;14.18;2.55;;;;;;;-142.75;100.00;76154.97;4987748;28;20030;-65
2023/07/13 04:06:00;;;;;;;9.35;2.42;;;;;;;-142.75;100.00;76145.13;5005925;28;20029;-64
2023/07/13 04:08:34;;;;;;;17.30;3.00;;;;;;;-142.75;100.00;76137.25;5005130;28;20030;-64
2023/07/13 04:11:00;;;;;;;9.18;2.40;;;;;;;-142.75;100.00;76160.88;5005640;28;20053;-65
2023/07/13 04:13:26;;;;;;;13.43;2.95;;;;;;;-142.75;100.00;76149.06;5005308;28;20147;-61
2023/07/13 04:15:52;;;;;;;9.70;2.45;;;;;;;-142.75;100.00;76137.25;5005695;28;20117;-64
2023/07/13 04:18:19;;;;;;;15.80;2.90;;;;;;;-142.75;100.00;76145.13;5005185;28;20030;-64
2023/07/13 04:20:45;;;;;;;13.80;3.33;;;;;;;-142.75;100.00;76137.25;5005039;28;20053;-64
2023/07/13 04:23:11;;;;;;;11.18;3.00;;;;;;;-142.75;100.00;76137.25;5005367;28;20052;-64
2023/07/13 04:25:36;;;;;;;11.77;3.17;;;;;;;-142.75;100.00;76149.06;5005843;28;20033;-64
2023/07/13 04:28:04;;;;;;;13.05;3.13;;;;;;;-142.75;100.00;76164.81;5005304;28;20025;-64
2023/07/13 04:30:29;;;;;;;15.27;4.00;;;;;;;-142.75;100.00;76151.03;5003850;28;20030;-64
2023/07/13 04:32:54;;;;;;;10.23;2.58;;;;;;;-142.75;100.00;76172.69;5000258;28;20113;-63
2023/07/13 04:35:20;;;;;;;15.02;2.95;;;;;;;-142.75;100.00;76156.94;4996614;28;20021;-64
2023/07/13 04:37:48;;;;;;;8.40;2.28;;;;;;;-142.75;100.00;76145.13;5004963;28;20104;-64
2023/07/13 04:40:14;;;;;;;11.30;2.55;;;;;;;-142.75;100.00;76149.06;5004447;28;20540;-63
2023/07/13 04:42:39;;;;;;;12.57;3.20;;;;;;;-142.75;100.00;76145.13;5004711;28;20030;-64
2023/07/13 04:45:06;;;;;;;11.35;3.13;;;;;;;-142.75;100.00;76139.22;5004857;28;20650;-64
2023/07/13 04:47:32;;;;;;;9.93;3.13;;;;;;;-142.75;100.00;76156.94;5004586;28;20028;-64
2023/07/13 04:49:57;;;;;;;16.20;3.25;;;;;;;-142.75;100.00;76160.88;5004538;28;20029;-65
2023/07/13 04:52:23;;;;;;;17.67;3.80;;;;;;;-142.75;100.00;76160.88;5004926;28;20060;-64
2023/07/13 04:54:49;;;;;;;15.80;3.40;;;;;;;-142.75;100.00;76154.97;5004894;28;20517;-63
2023/07/13 04:57:15;;;;;;;13.45;3.40;;;;;;;-142.75;100.00;76141.19;4984390;28;20033;-63
2023/07/13 04:59:40;;;;;;;15.32;3.38;;;;;;;-142.75;100.00;76105.75;4986562;28;20493;-64
2023/07/13 05:02:06;;;;;;;9.20;3.35;;;;;;;-142.75;100.00;76105.75;5004509;28;20034;-63
2023/07/13 05:04:32;;;;;;;8.93;2.83;;;;;;;-142.75;100.00;76090.00;5004588;28;20072;-63
2023/07/13 05:06:57;;;;;;;12.30;2.97;;;;;;;-142.75;100.00;76076.22;5004602;28;20667;-62
2023/07/13 05:09:22;;;;;;;12.65;3.30;;;;;;;-142.75;100.00;76091.97;5004474;28;20034;-64
2023/07/13 05:11:48;;;;;;;7.63;2.67;;;;;;;-142.75;100.00;76109.69;5004415;28;20026;-63
2023/07/13 05:14:15;;;;;;;13.10;2.72;;;;;;;-142.75;100.00;76117.56;5004607;28;20029;-63
2023/07/13 05:16:40;;;;;;;12.38;3.80;;;;;;;-142.75;100.00;76099.84;5004575;28;20026;-64
2023/07/13 05:19:05;;;;;;;22.95;3.72;;;;;;;-142.75;100.00;76105.75;5002702;28;20386;-63
2023/07/13 05:21:31;;;;;;;16.33;3.10;;;;;;;-142.75;100.00;76101.81;5004152;28;20393;-64
2023/07/13 05:23:56;;;;;;;13.77;2.72;;;;;;;-142.75;100.00;76088.03;5004801;28;20429;-62
2023/07/13 05:26:22;;;;;;;11.55;2.30;;;;;;;-142.75;100.00;76090.00;5004892;28;20486;-63
2023/07/13 05:28:47;;;;;;;11.98;2.13;;;;;;;-142.75;100.00;76082.13;5003824;28;20060;-63
2023/07/13 05:31:13;;;;;;;12.50;2.95;;;;;;;-142.75;100.00;76082.13;5004709;28;20101;-64
2023/07/13 05:33:39;;;;;;;11.80;2.88;;;;;;;-142.75;100.00;76072.31;5004712;28;20037;-64
2023/07/13 05:36:05;;;;;;;11.95;2.70;;;;;;;-142.75;100.00;76095.91;5004554;28;20018;-64
2023/07/13 05:38:30;;;;;;;10.85;2.95;;;;;;;-142.75;100.00;76103.78;4989700;28;20116;-63
2023/07/13 05:40:57;;;;;;;14.18;3.30;;;;;;;-142.75;100.00;76103.78;4984570;28;20033;-64
2023/07/13 05:43:23;;;;;;;15.05;3.58;;;;;;;-142.75;100.00;76129.38;4984940;28;20034;-65
2023/07/13 05:45:49;;;;;;;11.40;3.25;;;;;;;-142.75;100.00;76093.94;4984800;28;20490;-64
2023/07/13 05:48:15;;;;;;;12.82;2.85;;;;;;;-142.75;100.00;76088.03;4984716;28;20077;-63
2023/07/13 05:50:40;;;;;;;12.02;2.85;;;;;;;-142.75;100.00;76078.19;4991192;28;20524;-63
2023/07/13 05:53:06;;;;;;;14.55;2.97;;;;;;;-142.75;100.00;76066.41;5000759;28;20056;-63
2023/07/13 05:55:32;;;;;;;12.88;3.30;;;;;;;-142.75;100.00;76066.41;5005081;28;20049;-63
2023/07/13 05:57:59;;;;;;;14.75;3.40;;;;;;;-142.75;100.00;76080.16;5005186;28;20050;-64
2023/07/13 06:00:25;;;;;;;9.38;3.08;;;;;;;-142.75;100.00;76070.34;5004427;28;20108;-63
2023/07/13 06:02:50;;;;;;;11.10;3.05;;;;;;;-142.75;100.00;76078.19;5004386;28;20508;-62
2023/07/13 06:05:16;;;;;;;10.23;2.67;;;;;;;-142.75;100.00;76068.38;5004418;28;20026;-62
2023/07/13 06:07:41;;;;;;;10.80;2.92;;;;;;;-142.75;100.00;76082.13;4983602;28;20036;-63
2023/07/13 06:10:07;;;;;;;9.43;2.78;;;;;;;-142.75;100.00;76078.19;4984753;28;20038;-63
2023/07/13 06:12:33;;;;;;;12.27;3.00;;;;;;;-142.75;100.00;76123.47;4985090;28;20019;-63
2023/07/13 06:14:58;;;;;;;14.48;2.67;;;;;;;-142.75;100.00;76125.44;4985053;28;20416;-63
2023/07/13 06:17:24;;;;;;;14.65;4.20;;;;;;;-142.75;100.00;76121.50;4985225;28;20038;-61
2023/07/13 06:19:49;;;;;;;13.50;3.70;;;;;;;-142.75;100.00;76119.53;4984318;28;20030;-62
2023/07/13 06:22:14;;;;;;;10.77;3.88;;;;;;;-142.75;100.00;76121.50;4984965;28;20030;-62
2023/07/13 06:24:40;;;;;;;11.38;3.83;;;;;;;-142.75;100.00;76129.38;4984992;28;20057;-63
2023/07/13 06:27:05;;;;;;;10.25;3.42;;;;;;;-142.75;100.00;76111.66;4984122;28;20026;-63
2023/07/13 06:29:31;;;;;;;12.25;4.30;;;;;;;-142.75;100.00;76145.13;4985031;28;20088;-63
2023/07/13 06:31:57;;;;;;;6.78;2.78;;;;;;;-142.75;100.00;76194.34;4984657;28;20029;-62
2023/07/13 06:34:22;;;;;;;6.65;2.53;;;;;;;-142.75;100.00;76200.25;4984322;28;20105;-62
2023/07/13 06:36:48;;;;;;;5.65;1.67;;;;;;;-142.75;100.00;76225.81;4984929;28;20022;-62
2023/07/13 06:39:14;;;;;;;5.32;1.40;;;;;;;-142.75;100.00;76255.34;4984411;28;20080;-62
2023/07/13 06:41:39;;;;;;;4.43;1.55;;;;;;;-142.75;100.00;76239.59;4984813;28;20146;-63
2023/07/13 06:44:06;;;;;;;5.78;2.10;;;;;;;-142.75;100.00;76241.56;4984627;28;20061;-63
2023/07/13 06:46:32;;;;;;;5.45;2.03;;;;;;;-142.75;100.00;76219.91;4985383;28;20033;-62
2023/07/13 06:48:57;;;;;;;6.70;1.95;;;;;;;-142.75;100.00;76208.09;5001707;28;20030;-63
2023/07/13 06:51:23;;;;;;;4.47;1.90;;;;;;;-142.75;100.00;76200.25;5004333;28;20389;-63
2023/07/13 06:53:49;;;;;;;6.03;1.80;;;;;;;-142.75;100.00;76184.50;5005913;28;20109;-63
2023/07/13 06:56:15;;;;;;;8.75;2.10;;;;;;;-142.75;100.00;76184.50;5008236;28;20717;-62
2023/07/13 06:58:41;;;;;;;6.25;2.22;;;;;;;-142.75;100.00;76180.56;5007644;28;20021;-62
2023/07/13 07:01:06;;;;;;;5.78;2.50;;;;;;;-142.75;100.00;76192.38;5007657;28;20033;-61
2023/07/13 07:03:32;;;;;;;7.85;2.25;;;;;;;-142.75;100.00;76168.75;5000496;28;20042;-62
2023/07/13 07:06:14;;;;;;;9.98;2.75;;;;;;;-142.75;100.00;76125.44;4988085;28;20080;-61
2023/07/13 07:08:40;;;;;;;6.72;2.67;;;;;;;-142.75;100.00;76145.13;4987521;28;20030;-63
2023/07/13 07:11:08;;;;;;;5.50;2.75;;;;;;;-142.75;100.00;76156.94;4987922;28;20088;-62
2023/07/13 07:13:33;;;;;;;11.50;3.35;;;;;;;-142.75;100.00;76174.66;4987870;28;20073;-62
2023/07/13 07:16:00;;;;;;;12.60;2.60;;;;;;;-142.75;100.00;76192.38;4987794;28;20026;-63
2023/07/13 07:18:25;;;;;;;8.73;2.90;;;;;;;-142.75;100.00;76180.56;4987618;28;20092;-63
2023/07/13 07:20:50;;;;;;;8.13;2.92;;;;;;;-142.75;100.00;76184.50;4987323;28;20026;-62
2023/07/13 07:23:16;;;;;;;9.68;3.67;;;;;;;-142.75;100.00;76168.75;5002471;28;20034;-62
2023/07/13 07:25:43;;;;;;;11.73;3.85;;;;;;;-142.75;100.00;76158.91;4987599;28;20022;-62
2023/07/13 07:28:09;;;;;;;10.68;2.83;;;;;;;-142.75;100.00;76149.06;4991321;28;21612;-63
2023/07/13 07:30:35;;;;;;;10.52;2.92;;;;;;;-142.75;100.00;76131.34;4987536;28;20117;-63
2023/07/13 07:33:01;;;;;;;9.18;2.92;;;;;;;-142.75;100.00;76170.72;4995340;28;20045;-63
2023/07/13 07:35:26;;;;;;;6.35;2.38;;;;;;;-142.75;100.00;76188.44;4997218;28;20017;-60
2023/07/13 07:37:52;;;;;;;2.88;0.82;;;;;;;-142.75;100.00;76267.16;5006769;28;20025;-62
2023/07/13 07:40:18;;;;;;;4.38;1.17;;;;;;;-142.75;100.00;76286.84;5001747;28;20405;-62
2023/07/13 07:42:44;;;;;;;2.40;1.10;;;;;;;-142.75;100.00;76263.22;4988597;28;20062;-62
2023/07/13 07:45:11;;;;;;;4.20;1.35;;;;;;;-142.75;100.00;76286.84;4984289;28;20065;-63
2023/07/13 07:47:37;;;;;;;3.47;1.15;;;;;;;-142.75;100.00;76296.69;4986493;28;20026;-63
2023/07/13 07:50:02;;;;;;;2.65;1.23;;;;;;;-142.75;100.00;76300.63;4986028;28;20532;-62
2023/07/13 07:52:28;;;;;;;5.45;1.52;;;;;;;-142.75;100.00;76267.16;4985449;28;20097;-62
2023/07/13 07:54:53;;;;;;;3.75;1.50;;;;;;;-142.75;100.00;76212.03;4986269;28;20041;-62
2023/07/13 07:57:19;;;;;;;7.05;1.92;;;;;;;-142.75;100.00;76141.19;4986433;28;20033;-62
2023/07/13 07:59:44;;;;;;;5.40;1.83;;;;;;;-142.75;100.00;76062.47;4985885;28;20018;-63
2023/07/13 08:02:11;;;;;;;7.40;1.88;;;;;;;-142.75;100.00;76048.69;4985367;28;20030;-62
2023/07/13 08:04:36;;;;;;;4.78;2.13;;;;;;;-142.75;100.00;76044.75;4985285;28;20100;-63
2023/07/13 08:07:02;;;;;;;6.25;1.92;;;;;;;-142.75;100.00;75979.78;4985040;28;20109;-63
2023/07/13 08:09:28;;;;;;;5.30;2.10;;;;;;;-142.75;100.00;75932.56;4985512;28;20026;-63
2023/07/13 08:11:54;;;;;;;6.90;2.50;;;;;;;-142.75;100.00;75873.50;4985313;28;20038;-62
2023/07/13 08:14:20;;;;;;;5.65;2.40;;;;;;;-142.75;100.00;75865.63;4985682;28;20018;-63
2023/07/13 08:16:45;;;;;;;6.57;2.28;;;;;;;-142.75;100.00;75861.69;4981593;28;20034;-63
2023/07/13 08:19:11;;;;;;;6.25;2.00;;;;;;;-142.75;100.00;75930.59;4984545;28;20157;-64
2023/07/13 08:21:36;;;;;;;4.25;1.48;;;;;;;-142.75;100.00;76019.16;4981923;28;20649;-63
2023/07/13 08:24:02;;;;;;;8.15;1.70;;;;;;;-142.75;100.00;76062.47;4996231;28;20433;-63
2023/07/13 08:26:27;;;;;;;6.53;1.73;;;;;;;-142.75;100.00;76066.41;5005344;28;20025;-60
2023/07/13 08:28:53;;;;;;;4.57;1.60;;;;;;;-142.75;100.00;76072.31;4988309;28;20577;-62
2023/07/13 08:31:18;;;;;;;2.85;1.77;;;;;;;-142.75;100.00;75999.47;4988503;28;20022;-62
2023/07/13 08:33:44;;;;;;;6.55;2.20;;;;;;;-142.75;100.00;75967.97;4988114;28;20401;-62
2023/07/13 08:36:09;;;;;;;4.20;1.58;;;;;;;-142.75;100.00;75942.41;4992718;28;20026;-62
2023/07/13 08:38:34;;;;;;;5.47;1.98;;;;;;;-142.75;100.00;75908.94;4990427;28;20030;-62
2023/07/13 08:41:09;;;;;;;4.70;2.00;;;;;;;-142.75;100.00;75845.97;5004936;28;20030;-62
2023/07/13 08:43:36;;;;;;;7.75;2.13;;;;;;;-142.75;100.00;75840.06;5004835;28;20113;-63
2023/07/13 08:46:12;;;;;;;8.77;2.42;;;;;;;-142.75;100.00;75836.13;4996997;28;20025;-60
2023/07/13 08:49:13;;;;;;;;;;;;;;;-142.75;100.00;75782.97;4986308;28;20026;-63
2023/07/13 08:51:44;;;;;;;7.07;1.65;;;;;;;-142.75;100.00;75853.84;4924846;29;19973;-62
2023/07/13 08:54:24;;;;;;;4.25;1.40;;;;;;;-142.75;100.00;75881.38;4973293;28;20052;-62
2023/07/13 08:56:52;;;;;;;5.63;1.52;;;;;;;-142.75;100.00;75960.13;4998607;28;20025;-62
2023/07/13 08:59:25;;;;;;;4.03;1.83;;;;;;;-142.75;100.00;75971.91;5005108;28;20044;-62
2023/07/13 09:02:06;;;;;;;4.13;1.55;;;;;;;-142.75;100.00;75979.78;5005732;28;20037;-62
2023/07/13 09:04:41;;;;;;;4.45;1.80;;;;;;;-142.75;100.00;75993.56;4993446;28;20120;-62
2023/07/13 09:07:18;;;;;;;8.13;1.83;;;;;;;-142.75;100.00;75962.09;4985989;28;20030;-62
2023/07/13 09:10:09;;;;;;;4.43;1.75;;;;;;;-142.75;100.00;75912.88;4986882;28;20034;-62
2023/07/13 09:12:34;;;;;;;3.78;1.75;;;;;;;-142.75;100.00;75887.28;5001883;28;20370;-62
2023/07/13 09:15:04;;;;;;;5.15;2.00;;;;;;;-142.75;100.00;75966.00;4986201;28;20084;-62
2023/07/13 09:17:46;;;;;;;3.63;1.90;;;;;;;-142.75;100.00;76029.00;4985432;28;20620;-62
2023/07/13 09:20:31;;;;;;;5.45;1.60;;;;;;;-142.75;100.00;76058.53;4985606;28;20037;-63
2023/07/13 09:23:01;;;;;;;4.93;1.60;;;;;;;-142.75;100.00;76131.34;4985633;28;20030;-64
2023/07/13 09:25:30;;;;;;;7.13;1.33;;;;;;;-142.75;100.00;76137.25;4985647;28;20112;-63
2023/07/13 09:28:00;;;;;;;6.65;1.75;;;;;;;-142.75;100.00;76117.56;4986225;28;20026;-62
2023/07/13 09:30:44;;;;;;;4.00;1.90;;;;;;;-142.75;100.00;76156.94;5003592;28;20075;-62
2023/07/13 09:33:09;;;;;;;4.78;1.77;;;;;;;-142.75;100.00;76151.03;5003363;28;20060;-62
2023/07/13 09:35:35;;;;;;;6.10;2.20;;;;;;;-142.75;100.00;76143.16;4985330;28;20503;-62
2023/07/13 09:38:19;;;;;;;5.25;2.00;;;;;;;-142.75;100.00;76105.75;4985410;28;20117;-62
2023/07/13 09:40:50;;;;;;;6.03;2.10;;;;;;;-142.75;100.00;76127.41;4985184;28;20025;-62
2023/07/13 09:43:18;;;;;;;3.28;1.67;;;;;;;-142.75;100.00;76101.81;4985048;28;20100;-62
2023/07/13 09:45:47;;;;;;;6.38;2.35;;;;;;;-142.75;100.00;76078.19;4985316;28;20022;-62
2023/07/13 09:48:14;;;;;;;4.75;1.85;;;;;;;-142.75;100.00;76042.78;4985067;28;20034;-62
2023/07/13 09:50:41;;;;;;;6.38;2.28;;;;;;;-142.75;100.00;76019.16;4985363;28;20022;-62
2023/07/13 09:53:12;;;;;;;6.85;2.10;;;;;;;-142.75;100.00;76025.06;4985340;28;20030;-61
2023/07/13 09:55:40;;;;;;;5.70;2.20;;;;;;;-142.75;100.00;76001.44;4985432;28;20030;-62
2023/07/13 09:58:24;;;;;;;8.70;2.38;;;;;;;-142.75;100.00;75950.28;4985746;28;20034;-61
2023/07/13 10:00:58;;;;;;;7.03;2.40;;;;;;;-142.75;100.00;75924.69;4985549;28;20494;-62
2023/07/13 10:03:37;;;;;;;7.82;2.90;;;;;;;-142.75;100.00;75912.88;4985359;28;20035;-62
2023/07/13 10:06:14;;;;;;;4.25;2.30;;;;;;;-142.75;100.00;75906.97;4985160;28;20027;-61
2023/07/13 10:08:40;;;;;;;7.50;2.50;;;;;;;-142.75;100.00;75897.13;4984667;28;20104;-62
2023/07/13 10:11:20;;;;;;;6.18;2.80;;;;;;;-142.75;100.00;75851.88;4984939;28;20031;-62
2023/07/13 10:13:56;;;;;;;5.35;2.53;;;;;;;-142.75;100.00;75875.47;4985104;28;20026;-61
2023/07/13 10:16:24;;;;;;;5.88;1.95;;;;;;;-142.75;100.00;75889.25;4985383;28;20058;-63
2023/07/13 10:18:55;;;;;;;5.80;2.22;;;;;;;-142.75;100.00;75950.28;4984560;28;20105;-63
2023/07/13 10:21:26;;;;;;;7.68;1.90;;;;;;;-142.75;100.00;75952.25;4985007;28;20061;-61
2023/07/13 10:23:55;;;;;;;7.68;2.15;;;;;;;-142.75;100.00;75964.03;4985248;28;20045;-62
2023/07/13 10:26:29;;;;;;;5.07;1.70;;;;;;;-142.75;100.00;75960.13;4985225;28;20034;-61
2023/07/13 10:29:01;;;;;;;5.97;2.00;;;;;;;-142.75;100.00;75936.50;4987077;28;20713;-62
2023/07/13 10:31:27;;;;;;;5.13;2.10;;;;;;;-142.75;100.00;75966.00;4988572;28;20113;-60
2023/07/13 10:33:53;;;;;;;5.05;2.55;;;;;;;-142.75;100.00;75962.09;4988707;28;20552;-62
2023/07/13 10:36:34;;;;;;;3.78;1.98;;;;;;;-142.75;100.00;76003.41;4989049;28;20240;-62
2023/07/13 10:39:03;;;;;;;4.18;2.03;;;;;;;-142.75;100.00;75901.06;4989544;28;20042;-62
2023/07/13 10:41:33;;;;;;;4.78;2.05;;;;;;;-142.75;100.00;75836.13;4989655;28;20049;-59
2023/07/13 10:43:59;;;;;;;4.78;1.65;;;;;;;-142.75;100.00;75806.59;4989749;28;20460;-62
2023/07/13 10:46:27;;;;;;;8.45;2.00;;;;;;;-142.75;100.00;75782.97;4989636;28;20038;-61
2023/07/13 10:48:58;;;;;;;8.98;1.98;;;;;;;-142.75;100.00;75804.63;4989183;28;20064;-62
2023/07/13 10:51:25;;;;;;;6.43;1.85;;;;;;;-142.75;100.00;75818.41;4989963;28;20037;-63
2023/07/13 10:54:23;;;;;;;4.85;1.80;;;;;;;-142.75;100.00;75822.34;4989478;28;20033;-62
2023/07/13 10:57:14;;;;;;;3.45;1.60;;;;;;;-142.75;100.00;75845.97;4989438;28;20027;-62
2023/07/13 10:59:41;;;;;;;3.85;1.70;;;;;;;-142.75;100.00;75838.09;4985759;28;20042;-62
2023/07/13 11:02:24;;;;;;;4.72;1.98;;;;;;;-142.75;100.00;75802.66;4989034;28;20034;-62
2023/07/13 11:04:52;;;;;;;6.18;2.00;;;;;;;-142.75;100.00;75796.75;4989519;28;20022;-62
2023/07/13 11:07:31;;;;;;;5.32;1.80;;;;;;;-142.75;100.00;75814.47;4989381;28;20027;-62
2023/07/13 11:10:00;;;;;;;6.85;1.80;;;;;;;-142.75;100.00;75798.72;4988954;28;20030;-62